Time;durP1;ratioP1;P1;durP2;ratioP2;P2;SDS_P1;SDS_P2;PMS_P1;PMS_P2;Temp;Humidity;BMP_temperature;BMP_pressure;BME280_temperature;BME280_humidity;BME280_pressure;Samples;Min_cycle;Max_cycle;Signal;HPM_P1;HPM_P2
2021/06/12 00:01:37;;;;;;;4.68;3.80;;;;;24.30;101755.00;;;;5099491;28;20191;-77
2021/06/12 00:04:04;;;;;;;6.22;4.38;;;;;24.30;101759.00;;;;5100945;28;20674;-77
2021/06/12 00:06:31;;;;;;;5.05;3.88;;;;;24.30;101762.00;;;;5109273;28;20231;-77
2021/06/12 00:08:57;;;;;;;5.03;3.80;;;;;24.30;101764.00;;;;5106693;28;20228;-77
2021/06/12 00:11:25;;;;;;;5.00;3.50;;;;;24.30;101759.00;;;;5092968;28;20982;-77
2021/06/12 00:13:51;;;;;;;5.90;4.07;;;;;24.20;101752.00;;;;5091682;28;20195;-76
2021/06/12 00:16:19;;;;;;;6.38;4.00;;;;;24.20;101753.00;;;;5101692;28;20234;-77
2021/06/12 00:18:47;;;;;;;5.90;4.03;;;;;24.20;101751.00;;;;5107348;28;20193;-77
2021/06/12 00:21:14;;;;;;;4.10;3.25;;;;;24.20;101739.00;;;;5104666;28;20182;-77
2021/06/12 00:23:41;;;;;;;5.30;4.05;;;;;24.20;101744.00;;;;5089719;28;20203;-77
2021/06/12 00:26:08;;;;;;;8.70;4.13;;;;;24.10;101749.00;;;;5094635;28;20194;-77
2021/06/12 00:28:37;;;;;;;4.13;3.15;;;;;24.10;101749.00;;;;5092877;28;20194;-77
2021/06/12 00:31:04;;;;;;;5.38;3.65;;;;;24.10;101740.00;;;;5109807;28;20254;-77
2021/06/12 00:33:31;;;;;;;5.47;3.53;;;;;24.10;101736.00;;;;5098119;28;20189;-77
2021/06/12 00:35:59;;;;;;;5.43;3.40;;;;;24.00;101733.00;;;;5102795;28;20278;-77
2021/06/12 00:38:26;;;;;;;4.55;3.40;;;;;24.00;101733.00;;;;5107041;28;20190;-77
2021/06/12 00:40:52;;;;;;;5.47;3.33;;;;;24.00;101732.00;;;;5096379;28;20190;-77
2021/06/12 00:43:19;;;;;;;6.65;3.75;;;;;24.00;101738.00;;;;5087058;28;20198;-77
2021/06/12 00:45:47;;;;;;;5.10;3.40;;;;;24.00;101738.00;;;;5101462;28;20190;-77
2021/06/12 00:48:13;;;;;;;5.82;3.38;;;;;24.00;101726.00;;;;5105889;28;20653;-77
2021/06/12 00:50:41;;;;;;;4.57;3.38;;;;;24.00;101734.00;;;;5092590;28;20203;-77
2021/06/12 00:53:09;;;;;;;4.25;2.80;;;;;24.00;101728.00;;;;5092472;28;20197;-77
2021/06/12 00:55:37;;;;;;;7.88;3.65;;;;;23.90;101720.00;;;;5093655;28;21048;-77
2021/06/12 00:58:05;;;;;;;6.22;3.92;;;;;24.00;101718.00;;;;5087851;28;20245;-76
2021/06/12 01:00:31;;;;;;;5.53;3.30;;;;;23.90;101730.00;;;;5092025;28;20267;-77
2021/06/12 01:02:58;;;;;;;3.70;2.80;;;;;23.90;101727.00;;;;5098533;28;20719;-77
2021/06/12 01:05:25;;;;;;;6.07;3.28;;;;;23.90;101735.00;;;;5095793;28;21210;-77
2021/06/12 01:07:52;;;;;;;5.63;2.85;;;;;23.90;101737.00;;;;5092475;28;20205;-77
2021/06/12 01:10:20;;;;;;;5.93;2.70;;;;;23.90;101738.00;;;;5098019;28;20215;-76
2021/06/12 01:13:02;;;;;;;5.55;3.22;;;;;23.90;101742.00;;;;5109042;28;20194;-77
2021/06/12 01:15:36;;;;;;;6.63;3.00;;;;;23.90;101742.00;;;;5099417;28;20687;-77
2021/06/12 01:18:07;;;;;;;5.07;2.72;;;;;23.90;101736.00;;;;5105090;28;20200;-76
2021/06/12 01:21:05;;;;;;;4.50;2.65;;;;;23.80;101735.00;;;;5089644;28;20255;-77
2021/06/12 01:24:11;;;;;;;4.55;2.97;;;;;23.80;101737.00;;;;5090234;28;20194;-77
2021/06/12 01:26:55;;;;;;;5.78;2.38;;;;;23.80;101734.00;;;;5101244;28;20842;-77
2021/06/12 01:29:36;;;;;;;4.65;2.45;;;;;23.80;101734.00;;;;5097467;28;20203;-77
2021/06/12 01:32:05;;;;;;;5.85;3.05;;;;;23.90;101729.00;;;;5090090;28;20190;-77
2021/06/12 01:34:34;;;;;;;3.55;2.75;;;;;23.80;101732.00;;;;5093122;28;20236;-76
2021/06/12 01:37:02;;;;;;;5.82;3.42;;;;;23.90;101732.00;;;;5107286;28;20200;-77
2021/06/12 01:39:29;;;;;;;3.92;2.40;;;;;23.90;101736.00;;;;5102384;28;20288;-77
2021/06/12 01:41:59;;;;;;;4.90;2.65;;;;;23.90;101729.00;;;;5092259;28;20202;-77
2021/06/12 01:44:28;;;;;;;3.70;2.55;;;;;23.90;101739.00;;;;5101625;28;20263;-77
2021/06/12 01:46:57;;;;;;;4.93;2.58;;;;;23.80;101730.00;;;;5107851;28;20198;-77
2021/06/12 01:49:26;;;;;;;4.57;2.40;;;;;23.90;101718.00;;;;5103902;28;20956;-77
2021/06/12 01:51:53;;;;;;;5.82;3.00;;;;;23.90;101721.00;;;;5088360;28;20224;-77
2021/06/12 01:54:21;;;;;;;3.40;2.38;;;;;23.90;101714.00;;;;5089045;28;20198;-77
2021/06/12 01:56:49;;;;;;;5.95;3.25;;;;;23.90;101714.00;;;;5103152;28;20580;-77
2021/06/12 01:59:16;;;;;;;4.13;2.58;;;;;23.90;101717.00;;;;5109167;28;20194;-77
2021/06/12 02:01:48;;;;;;;6.25;3.25;;;;;23.90;101726.00;;;;5100985;28;20679;-77
2021/06/12 02:04:16;;;;;;;6.43;3.38;;;;;23.90;101714.00;;;;5112177;28;20229;-77
2021/06/12 02:06:45;;;;;;;7.65;2.70;;;;;23.90;101710.00;;;;5111474;28;20193;-77
2021/06/12 02:09:14;;;;;;;6.63;2.83;;;;;23.90;101710.00;;;;5100395;28;20584;-77
2021/06/12 02:11:42;;;;;;;5.18;2.97;;;;;23.90;101713.00;;;;5111380;28;20197;-77
2021/06/12 02:14:10;;;;;;;4.05;2.55;;;;;23.90;101709.00;;;;5109336;28;20594;-77
2021/06/12 02:16:38;;;;;;;6.65;3.10;;;;;23.90;101713.00;;;;5096444;28;20213;-77
2021/06/12 02:19:06;;;;;;;3.78;2.67;;;;;23.90;101719.00;;;;5111714;28;20205;-77
2021/06/12 02:21:34;;;;;;;4.50;2.90;;;;;23.90;101725.00;;;;5110752;28;20200;-77
2021/06/12 02:24:03;;;;;;;6.72;2.83;;;;;23.90;101720.00;;;;5111667;28;20683;-77
2021/06/12 02:26:33;;;;;;;6.95;3.45;;;;;23.90;101717.00;;;;5107726;28;20205;-77
2021/06/12 02:29:01;;;;;;;4.38;2.85;;;;;23.90;101721.00;;;;5099771;28;20202;-77
2021/06/12 02:31:31;;;;;;;5.75;2.88;;;;;23.90;101713.00;;;;5098635;28;20205;-77
2021/06/12 02:33:58;;;;;;;6.53;3.25;;;;;24.00;101705.00;;;;5101878;28;20222;-76
2021/06/12 02:36:25;;;;;;;5.13;2.92;;;;;24.00;101700.00;;;;5108721;28;20228;-76
2021/06/12 02:38:52;;;;;;;6.60;3.45;;;;;23.90;101704.00;;;;5111208;28;20197;-77
2021/06/12 02:41:21;;;;;;;5.25;3.47;;;;;24.00;101714.00;;;;5098612;28;20646;-77
2021/06/12 02:43:48;;;;;;;5.50;3.25;;;;;24.00;101708.00;;;;5103547;28;20704;-77
2021/06/12 02:46:18;;;;;;;3.75;2.92;;;;;24.00;101711.00;;;;5092918;28;20195;-77
2021/06/12 02:48:50;;;;;;;5.20;3.13;;;;;24.00;101707.00;;;;5108478;28;20201;-77
2021/06/12 02:51:16;;;;;;;4.57;2.67;;;;;24.00;101691.00;;;;5094003;28;20195;-77
2021/06/12 02:53:45;;;;;;;5.88;2.97;;;;;24.00;101689.00;;;;5107625;28;20217;-76
2021/06/12 02:56:15;;;;;;;4.07;2.72;;;;;24.00;101686.00;;;;5109761;28;20209;-77
2021/06/12 02:58:45;;;;;;;6.25;2.88;;;;;24.00;101692.00;;;;5109927;28;20189;-77
2021/06/12 03:01:14;;;;;;;5.10;2.95;;;;;24.00;101692.00;;;;5103877;28;20232;-77
2021/06/12 03:03:42;;;;;;;4.70;3.05;;;;;24.00;101702.00;;;;5109785;28;20260;-77
2021/06/12 03:06:10;;;;;;;5.07;2.90;;;;;24.00;101714.00;;;;5109082;28;20239;-77
2021/06/12 03:08:42;;;;;;;6.45;3.35;;;;;24.00;101694.00;;;;5109745;28;20205;-77
2021/06/12 03:11:12;;;;;;;6.07;2.28;;;;;24.00;101694.00;;;;5101828;28;20190;-77
2021/06/12 03:13:46;;;;;;;4.78;2.63;;;;;24.00;101694.00;;;;5107723;28;20666;-77
2021/06/12 03:16:14;;;;;;;6.05;2.85;;;;;24.00;101698.00;;;;5108901;28;20216;-77
2021/06/12 03:18:43;;;;;;;3.83;2.78;;;;;24.00;101692.00;;;;5106737;28;20197;-76
2021/06/12 03:21:11;;;;;;;6.13;3.47;;;;;24.00;101699.00;;;;5103715;28;20197;-77
2021/06/12 03:23:38;;;;;;;5.25;2.30;;;;;24.00;101701.00;;;;5102428;28;20251;-77
2021/06/12 03:26:05;;;;;;;4.40;3.15;;;;;24.00;101705.00;;;;5106335;28;20318;-77
2021/06/12 03:28:32;;;;;;;7.43;3.17;;;;;24.00;101711.00;;;;5105140;28;20224;-77
2021/06/12 03:31:03;;;;;;;5.32;3.63;;;;;24.00;101710.00;;;;5090783;28;20195;-76
2021/06/12 03:33:30;;;;;;;6.22;3.10;;;;;24.10;101722.00;;;;5090609;28;20203;-77
2021/06/12 03:35:57;;;;;;;4.55;3.58;;;;;24.10;101713.00;;;;5108578;28;20237;-76
2021/06/12 03:38:26;;;;;;;6.38;2.78;;;;;24.10;101702.00;;;;5107762;28;20198;-77
2021/06/12 03:40:52;;;;;;;6.07;3.25;;;;;24.10;101709.00;;;;5109227;28;20346;-77
2021/06/12 03:43:20;;;;;;;4.95;3.03;;;;;24.10;101705.00;;;;5109499;28;20202;-77
2021/06/12 03:45:51;;;;;;;5.28;3.28;;;;;24.10;101711.00;;;;5093848;28;20273;-77
2021/06/12 03:48:22;;;;;;;4.85;3.42;;;;;24.00;101725.00;;;;5090180;28;20190;-77
2021/06/12 03:50:50;;;;;;;5.32;3.00;;;;;24.10;101720.00;;;;5102973;28;20281;-77
2021/06/12 03:53:17;;;;;;;5.45;3.30;;;;;24.10;101722.00;;;;5110073;28;20557;-77
2021/06/12 03:55:44;;;;;;;4.78;3.47;;;;;24.10;101720.00;;;;5107824;28;20217;-77
2021/06/12 03:58:11;;;;;;;5.07;3.33;;;;;24.10;101725.00;;;;5109575;28;20204;-77
2021/06/12 04:00:38;;;;;;;5.75;3.65;;;;;24.10;101732.00;;;;5106078;28;20629;-77
2021/06/12 04:03:05;;;;;;;9.77;3.53;;;;;24.10;101730.00;;;;5100639;28;20569;-77
2021/06/12 04:05:33;;;;;;;7.53;3.40;;;;;24.10;101731.00;;;;5105895;28;20198;-77
2021/06/12 04:08:00;;;;;;;7.70;3.47;;;;;24.10;101731.00;;;;5108938;28;20201;-77
2021/06/12 04:10:27;;;;;;;5.60;3.33;;;;;24.10;101731.00;;;;5108912;28;20220;-77
2021/06/12 04:12:54;;;;;;;7.55;3.60;;;;;24.10;101728.00;;;;5106521;28;20182;-76
2021/06/12 04:15:20;;;;;;;8.05;3.38;;;;;24.10;101730.00;;;;5106687;28;20225;-77
2021/06/12 04:17:50;;;;;;;6.18;3.00;;;;;24.10;101730.00;;;;5106888;28;20675;-77
2021/06/12 04:20:17;;;;;;;6.55;3.15;;;;;24.10;101742.00;;;;5107670;28;20722;-77
2021/06/12 04:22:45;;;;;;;5.35;2.92;;;;;24.10;101742.00;;;;5107295;28;20194;-77
2021/06/12 04:25:12;;;;;;;3.97;3.00;;;;;24.10;101745.00;;;;5091386;28;20232;-76
2021/06/12 04:27:39;;;;;;;5.93;2.88;;;;;24.10;101739.00;;;;5106588;28;20197;-77
2021/06/12 04:30:07;;;;;;;6.60;3.40;;;;;24.10;101727.00;;;;5108491;28;20292;-77
2021/06/12 04:32:34;;;;;;;3.75;2.45;;;;;24.10;101725.00;;;;5108599;28;20200;-77
2021/06/12 04:35:01;;;;;;;5.28;3.25;;;;;24.10;101729.00;;;;5107659;28;20278;-77
2021/06/12 04:37:28;;;;;;;5.95;3.28;;;;;24.10;101741.00;;;;5087639;28;20358;-76
2021/06/12 04:39:56;;;;;;;5.13;3.42;;;;;24.10;101742.00;;;;5105447;28;20202;-77
2021/06/12 04:42:23;;;;;;;3.60;2.58;;;;;24.20;101741.00;;;;5103170;28;20239;-76
2021/06/12 04:44:49;;;;;;;4.60;2.90;;;;;24.20;101735.00;;;;5094887;28;20213;-76
2021/06/12 04:47:16;;;;;;;8.02;3.35;;;;;24.20;101732.00;;;;5108501;28;20190;-77
2021/06/12 04:49:43;;;;;;;6.63;3.35;;;;;24.20;101744.00;;;;5103688;28;20207;-76
2021/06/12 04:52:09;;;;;;;6.20;3.30;;;;;24.20;101750.00;;;;5101866;28;20209;-77
2021/06/12 04:54:36;;;;;;;4.45;3.17;;;;;24.20;101745.00;;;;5089317;28;20194;-77
2021/06/12 04:57:05;;;;;;;5.90;2.90;;;;;24.20;101748.00;;;;5088828;28;20186;-76
2021/06/12 04:59:32;;;;;;;4.97;2.58;;;;;24.20;101748.00;;;;5102216;28;20683;-77
2021/06/12 05:01:59;;;;;;;5.15;3.38;;;;;24.20;101746.00;;;;5096139;28;20200;-76
2021/06/12 05:04:26;;;;;;;4.97;2.75;;;;;24.20;101762.00;;;;5107330;28;20748;-76
2021/06/12 05:06:54;;;;;;;5.20;3.33;;;;;24.10;101767.00;;;;5108664;28;20258;-77
2021/06/12 05:09:21;;;;;;;5.20;2.97;;;;;24.10;101769.00;;;;5099620;28;20248;-76
2021/06/12 05:11:47;;;;;;;6.15;3.13;;;;;24.10;101761.00;;;;5103425;28;20236;-77
2021/06/12 05:14:15;;;;;;;5.05;3.53;;;;;24.10;101751.00;;;;5094769;28;20191;-78
2021/06/12 05:16:42;;;;;;;5.25;2.85;;;;;24.10;101759.00;;;;5109132;28;20221;-77
2021/06/12 05:19:09;;;;;;;3.28;2.92;;;;;24.10;101759.00;;;;5108990;28;20198;-78
2021/06/12 05:21:38;;;;;;;4.28;2.60;;;;;24.10;101770.00;;;;5108280;28;20189;-77
2021/06/12 05:24:06;;;;;;;4.85;3.00;;;;;24.10;101774.00;;;;5102296;28;20537;-77
2021/06/12 05:26:33;;;;;;;6.82;3.22;;;;;24.10;101778.00;;;;5104234;28;20563;-78
2021/06/12 05:29:00;;;;;;;6.40;3.63;;;;;24.10;101781.00;;;;5097964;27;20202;-77
2021/06/12 05:31:28;;;;;;;7.03;3.63;;;;;24.10;101787.00;;;;5115237;27;20236;-78
2021/06/12 05:33:55;;;;;;;3.13;2.70;;;;;24.20;101767.00;;;;5108088;27;20864;-77
2021/06/12 05:36:22;;;;;;;5.30;3.03;;;;;24.20;101774.00;;;;5105570;28;20221;-77
2021/06/12 05:38:48;;;;;;;3.83;2.95;;;;;24.20;101768.00;;;;5109712;28;20195;-77
2021/06/12 05:41:15;;;;;;;6.05;3.30;;;;;24.20;101772.00;;;;5109244;28;20197;-77
2021/06/12 05:43:42;;;;;;;3.90;2.50;;;;;24.30;101776.00;;;;5111397;28;20556;-77
2021/06/12 05:46:09;;;;;;;4.25;2.90;;;;;24.30;101773.00;;;;5106268;28;20195;-77
2021/06/12 05:48:37;;;;;;;3.85;2.85;;;;;24.30;101785.00;;;;5107254;28;20398;-76
2021/06/12 05:51:04;;;;;;;4.97;2.80;;;;;24.30;101794.00;;;;5094171;28;20198;-77
2021/06/12 05:53:31;;;;;;;5.90;3.53;;;;;24.40;101783.00;;;;5109699;28;20717;-77
2021/06/12 05:55:58;;;;;;;7.07;2.83;;;;;24.40;101779.00;;;;5104032;28;20228;-77
2021/06/12 05:58:25;;;;;;;4.90;2.95;;;;;24.40;101787.00;;;;5094016;28;20551;-77
2021/06/12 06:00:52;;;;;;;5.80;3.05;;;;;24.50;101789.00;;;;5103651;28;20200;-76
2021/06/12 06:03:19;;;;;;;5.10;2.90;;;;;24.50;101790.00;;;;5104429;28;20200;-77
2021/06/12 06:05:47;;;;;;;3.65;2.72;;;;;24.60;101779.00;;;;5111430;28;20196;-77
2021/06/12 06:08:13;;;;;;;7.38;3.30;;;;;24.60;101772.00;;;;5106779;28;20192;-77
2021/06/12 06:10:40;;;;;;;6.13;2.85;;;;;24.70;101781.00;;;;5109231;28;20257;-77
2021/06/12 06:13:07;;;;;;;6.38;2.90;;;;;24.70;101786.00;;;;5111527;28;20202;-79
2021/06/12 06:15:34;;;;;;;4.10;2.80;;;;;24.80;101779.00;;;;5100563;28;20267;-80
2021/06/12 06:18:00;;;;;;;4.32;2.72;;;;;24.80;101788.00;;;;5095502;28;20205;-79
2021/06/12 06:20:27;;;;;;;4.50;2.88;;;;;24.90;101785.00;;;;5100491;28;20972;-78
2021/06/12 06:22:55;;;;;;;6.82;2.97;;;;;24.90;101787.00;;;;5111351;28;20663;-78
2021/06/12 06:25:23;;;;;;;5.10;2.78;;;;;25.00;101791.00;;;;5096771;28;20266;-78
2021/06/12 06:27:50;;;;;;;2.25;2.05;;;;;25.10;101802.00;;;;5105591;28;20301;-78
2021/06/12 06:30:18;;;;;;;4.00;2.40;;;;;25.10;101808.00;;;;5111159;28;20701;-77
2021/06/12 06:32:45;;;;;;;6.25;2.70;;;;;25.20;101799.00;;;;5107774;28;20663;-78
2021/06/12 06:35:14;;;;;;;4.03;2.17;;;;;25.30;101803.00;;;;5092763;28;20233;-77
2021/06/12 06:37:41;;;;;;;4.47;2.42;;;;;25.40;101804.00;;;;5101852;28;20205;-78
2021/06/12 06:40:11;;;;;;;4.43;2.35;;;;;25.40;101805.00;;;;5107233;28;20559;-78
2021/06/12 06:42:40;;;;;;;3.28;2.00;;;;;25.50;101803.00;;;;5106632;28;20197;-79
2021/06/12 06:45:09;;;;;;;2.10;1.80;;;;;25.50;101802.00;;;;5100443;28;20295;-78
2021/06/12 06:47:36;;;;;;;6.13;1.95;;;;;25.60;101805.00;;;;5100162;28;20263;-79
2021/06/12 06:50:04;;;;;;;4.13;1.88;;;;;25.60;101814.00;;;;5101839;28;20285;-79
2021/06/12 06:52:31;;;;;;;2.63;2.13;;;;;25.60;101812.00;;;;5111250;28;20272;-78
2021/06/12 06:54:58;;;;;;;4.40;2.03;;;;;25.70;101806.00;;;;5111201;28;20589;-79
2021/06/12 06:57:27;;;;;;;3.35;1.83;;;;;25.70;101806.00;;;;5110902;28;20198;-79
2021/06/12 06:59:54;;;;;;;2.60;2.03;;;;;25.70;101814.00;;;;5110948;28;20226;-78
2021/06/12 07:02:21;;;;;;;2.53;1.60;;;;;25.70;101822.00;;;;5110289;28;20263;-77
2021/06/12 07:04:48;;;;;;;3.00;1.95;;;;;25.70;101818.00;;;;5102033;28;20206;-77
2021/06/12 07:07:15;;;;;;;2.08;1.60;;;;;25.80;101828.00;;;;5095386;28;20707;-78
2021/06/12 07:09:42;;;;;;;3.03;1.95;;;;;25.80;101817.00;;;;5109073;28;20662;-78
2021/06/12 07:12:10;;;;;;;2.72;1.50;;;;;25.80;101816.00;;;;5110424;28;20202;-78
2021/06/12 07:14:40;;;;;;;3.75;1.95;;;;;25.80;101818.00;;;;5103806;28;20684;-78
2021/06/12 07:17:07;;;;;;;1.65;1.10;;;;;25.80;101811.00;;;;5097698;28;20225;-78
2021/06/12 07:19:34;;;;;;;2.63;1.58;;;;;25.80;101824.00;;;;5105394;28;20198;-79
2021/06/12 07:22:01;;;;;;;2.05;1.85;;;;;25.90;101832.00;;;;5095655;28;20220;-78
2021/06/12 07:24:30;;;;;;;2.47;1.63;;;;;25.90;101831.00;;;;5101217;28;20280;-79
2021/06/12 07:26:57;;;;;;;3.10;1.48;;;;;25.90;101830.00;;;;5091247;28;20208;-78
2021/06/12 07:29:24;;;;;;;3.03;1.83;;;;;25.90;101836.00;;;;5102311;28;20205;-79
2021/06/12 07:31:53;;;;;;;3.47;1.52;;;;;25.80;101836.00;;;;5107018;28;20189;-78
2021/06/12 07:34:20;;;;;;;4.20;1.45;;;;;25.80;101837.00;;;;5110631;28;20229;-78
2021/06/12 07:36:47;;;;;;;3.13;1.77;;;;;25.90;101833.00;;;;5105350;28;20241;-78
2021/06/12 07:39:14;;;;;;;2.88;1.50;;;;;25.90;101834.00;;;;5108790;28;20198;-79
2021/06/12 07:41:41;;;;;;;2.25;1.40;;;;;26.00;101838.00;;;;5105433;28;20202;-79
2021/06/12 07:44:08;;;;;;;1.85;1.40;;;;;26.00;101842.00;;;;5101818;28;20222;-78
2021/06/12 07:46:36;;;;;;;3.97;1.60;;;;;26.10;101838.00;;;;5101947;28;20449;-80
2021/06/12 07:49:05;;;;;;;3.85;1.98;;;;;26.20;101846.00;;;;5102560;27;20562;-80
2021/06/12 07:51:33;;;;;;;3.10;1.52;;;;;26.30;101854.00;;;;5104419;28;20721;-80
2021/06/12 07:54:01;;;;;;;4.45;2.05;;;;;26.30;101859.00;;;;5097319;28;20671;-78
2021/06/12 07:56:28;;;;;;;8.40;1.80;;;;;26.30;101852.00;;;;5099998;28;20225;-80
2021/06/12 07:58:55;;;;;;;3.05;1.58;;;;;26.40;101854.00;;;;5105670;28;20212;-80
2021/06/12 08:01:22;;;;;;;2.83;1.15;;;;;26.40;101860.00;;;;5098712;28;20247;-81
2021/06/12 08:03:49;;;;;;;1.10;0.85;;;;;26.40;101869.00;;;;5099260;28;20213;-79
2021/06/12 08:06:18;;;;;;;3.90;1.90;;;;;26.40;101874.00;;;;5101645;28;20201;-80
2021/06/12 08:08:45;;;;;;;3.45;1.48;;;;;26.40;101870.00;;;;5103740;28;20209;-81
2021/06/12 08:11:12;;;;;;;8.52;1.73;;;;;26.40;101883.00;;;;5100765;28;20243;-79
2021/06/12 08:13:39;;;;;;;5.07;1.90;;;;;26.40;101879.00;;;;5095044;28;20190;-80
2021/06/12 08:16:06;;;;;;;2.95;1.30;;;;;26.40;101878.00;;;;5100507;28;20222;-80
2021/06/12 08:18:34;;;;;;;2.58;1.58;;;;;26.40;101877.00;;;;5104344;28;20190;-80
2021/06/12 08:21:01;;;;;;;2.25;1.00;;;;;26.50;101874.00;;;;5092843;28;20201;-80
2021/06/12 08:23:29;;;;;;;2.95;1.30;;;;;26.50;101873.00;;;;5102210;28;20190;-81
2021/06/12 08:25:57;;;;;;;2.40;1.13;;;;;26.50;101892.00;;;;5109628;28;20254;-80
2021/06/12 08:28:24;;;;;;;2.17;1.50;;;;;26.50;101898.00;;;;5097799;28;20206;-80
2021/06/12 08:30:51;;;;;;;3.35;1.10;;;;;26.60;101895.00;;;;5089312;28;20671;-79
2021/06/12 08:33:18;;;;;;;3.42;1.23;;;;;26.60;101892.00;;;;5103271;28;20689;-79
2021/06/12 08:35:45;;;;;;;2.95;1.27;;;;;26.60;101891.00;;;;5108415;28;20230;-79
2021/06/12 08:38:12;;;;;;;2.80;1.50;;;;;26.70;101897.00;;;;5109664;28;20189;-78
2021/06/12 08:40:41;;;;;;;4.22;1.65;;;;;26.70;101906.00;;;;5091742;28;20178;-80
2021/06/12 08:43:09;;;;;;;4.80;1.67;;;;;26.80;101901.00;;;;5093601;28;20259;-80
2021/06/12 08:45:36;;;;;;;1.70;1.10;;;;;26.80;101905.00;;;;5094012;28;20269;-79
2021/06/12 08:48:05;;;;;;;2.70;1.08;;;;;26.90;101902.00;;;;5097519;28;20225;-79
2021/06/12 08:50:32;;;;;;;2.80;1.70;;;;;27.00;101917.00;;;;5102510;28;20202;-80
2021/06/12 08:52:59;;;;;;;2.05;1.20;;;;;27.00;101906.00;;;;5105539;28;20197;-77
2021/06/12 08:55:27;;;;;;;4.10;1.33;;;;;27.10;101907.00;;;;5088131;28;20233;-78
2021/06/12 08:57:55;;;;;;;3.42;1.55;;;;;27.20;101907.00;;;;5095658;28;20312;-78
2021/06/12 09:00:23;;;;;;;3.90;1.27;;;;;27.20;101909.00;;;;5105380;28;20197;-77
2021/06/12 09:03:11;;;;;;;3.72;1.50;;;;;27.10;101907.00;;;;5109566;28;20209;-77
2021/06/12 09:05:47;;;;;;;3.90;1.23;;;;;27.20;101911.00;;;;5092529;28;20202;-78
2021/06/12 09:08:16;;;;;;;2.05;1.20;;;;;27.30;101914.00;;;;5095867;28;20286;-78
2021/06/12 09:10:56;;;;;;;1.92;1.42;;;;;27.20;101915.00;;;;5098489;28;20198;-79
2021/06/12 09:13:46;;;;;;;2.08;1.35;;;;;27.20;101914.00;;;;5095688;28;20239;-78
2021/06/12 09:16:28;;;;;;;2.90;1.15;;;;;27.10;101916.00;;;;5094850;28;20266;-79
2021/06/12 09:18:56;;;;;;;2.75;1.35;;;;;27.30;101921.00;;;;5101154;28;20190;-78
2021/06/12 09:21:24;;;;;;;2.67;1.48;;;;;27.30;101927.00;;;;5099808;28;20193;-79
2021/06/12 09:23:53;;;;;;;2.50;1.05;;;;;27.30;101926.00;;;;5096492;28;20197;-78
2021/06/12 09:26:21;;;;;;;1.92;1.05;;;;;27.20;101927.00;;;;5098747;28;20205;-78
2021/06/12 09:28:52;;;;;;;3.50;1.60;;;;;27.20;101939.00;;;;5101312;28;20667;-79
2021/06/12 09:31:25;;;;;;;2.25;1.60;;;;;27.20;101936.00;;;;5108624;28;20732;-80
2021/06/12 09:33:54;;;;;;;2.67;1.52;;;;;27.20;101949.00;;;;5108437;28;20198;-77
2021/06/12 09:36:32;;;;;;;2.92;1.08;;;;;27.20;101945.00;;;;5098865;28;20222;-77
2021/06/12 09:39:11;;;;;;;10.38;1.30;;;;;27.10;101941.00;;;;5088594;28;20276;-78
2021/06/12 09:41:40;;;;;;;2.17;1.20;;;;;27.20;101950.00;;;;5101847;28;20869;-77
2021/06/12 09:44:09;;;;;;;4.95;1.00;;;;;27.10;101948.00;;;;5102182;28;20217;-78
2021/06/12 09:46:45;;;;;;;4.15;1.40;;;;;27.10;101954.00;;;;5100318;28;20202;-78
2021/06/12 09:49:14;;;;;;;2.25;1.25;;;;;27.20;101951.00;;;;5102140;28;20198;-79
2021/06/12 09:52:00;;;;;;;1.90;1.00;;;;;27.30;101957.00;;;;5101853;28;20202;-78
2021/06/12 09:54:35;;;;;;;3.28;1.40;;;;;27.20;101962.00;;;;5099686;28;20190;-77
2021/06/12 09:57:02;;;;;;;2.75;1.20;;;;;27.30;101966.00;;;;5102631;28;20643;-78
2021/06/12 09:59:39;;;;;;;4.47;1.58;;;;;27.20;101968.00;;;;5092224;28;20197;-76
2021/06/12 10:02:06;;;;;;;3.38;1.10;;;;;27.30;101970.00;;;;5099228;28;20190;-78
2021/06/12 10:04:33;;;;;;;2.05;1.20;;;;;27.40;101970.00;;;;5107375;28;20198;-77
2021/06/12 10:07:00;;;;;;;4.97;1.73;;;;;27.40;101964.00;;;;5104696;28;20197;-77
2021/06/12 10:09:28;;;;;;;4.32;1.23;;;;;27.40;101968.00;;;;5097693;28;20609;-80
2021/06/12 10:11:55;;;;;;;3.47;1.58;;;;;27.50;101975.00;;;;5101171;28;20201;-77
2021/06/12 10:14:23;;;;;;;4.07;2.00;;;;;27.50;101985.00;;;;5106622;28;20216;-78
2021/06/12 10:16:54;;;;;;;1.90;1.30;;;;;27.50;101981.00;;;;5110282;28;20266;-77
2021/06/12 10:19:22;;;;;;;2.75;1.20;;;;;27.60;101977.00;;;;5110303;28;20194;-76
2021/06/12 10:21:50;;;;;;;2.47;1.10;;;;;27.60;101982.00;;;;5109695;28;20201;-77
2021/06/12 10:24:17;;;;;;;2.40;0.95;;;;;27.60;101980.00;;;;5109369;28;20207;-77
2021/06/12 10:26:44;;;;;;;3.72;1.20;;;;;27.50;101980.00;;;;5095729;28;20202;-77
2021/06/12 10:29:13;;;;;;;3.03;1.02;;;;;27.50;101984.00;;;;5101911;28;20193;-76
2021/06/12 10:31:44;;;;;;;2.65;1.02;;;;;27.40;101984.00;;;;5103277;28;20204;-76
2021/06/12 10:34:12;;;;;;;4.35;1.02;;;;;27.40;101982.00;;;;5103554;28;20218;-76
2021/06/12 10:36:41;;;;;;;2.40;0.98;;;;;27.40;101981.00;;;;5098402;28;20687;-76
2021/06/12 10:39:26;;;;;;;4.68;1.13;;;;;27.30;101987.00;;;;5102511;28;20319;-76
2021/06/12 10:42:15;;;;;;;3.15;1.33;;;;;27.30;101983.00;;;;5095577;28;20189;-77
2021/06/12 10:44:43;;;;;;;2.70;1.30;;;;;27.40;101992.00;;;;5101065;27;20229;-76
2021/06/12 10:47:11;;;;;;;1.67;0.98;;;;;27.40;101985.00;;;;5107736;28;20586;-78
2021/06/12 10:49:39;;;;;;;2.53;0.93;;;;;27.40;101987.00;;;;5106355;28;20202;-76
2021/06/12 10:52:07;;;;;;;4.20;1.40;;;;;27.40;101991.00;;;;5102499;28;20202;-76
2021/06/12 10:54:37;;;;;;;1.13;0.80;;;;;27.40;101998.00;;;;5096241;28;20715;-77
2021/06/12 10:57:16;;;;;;;3.70;1.15;;;;;27.30;101999.00;;;;5108785;28;20298;-77
2021/06/12 10:59:49;;;;;;;2.70;1.20;;;;;27.40;101993.00;;;;5098286;28;20217;-76
2021/06/12 11:02:25;;;;;;;3.33;1.30;;;;;27.40;101987.00;;;;5093422;28;20186;-81
2021/06/12 11:04:57;;;;;;;3.72;1.60;;;;;27.50;102004.00;;;;5093233;28;20196;-78
2021/06/12 11:07:29;;;;;;;2.38;1.02;;;;;27.50;101992.00;;;;5112170;28;20202;-80
2021/06/12 11:10:25;;;;;;;5.50;1.75;;;;;27.40;101999.00;;;;5112002;28;20208;-79
2021/06/12 11:12:56;;;;;;;4.05;1.77;;;;;27.50;101989.00;;;;5112167;28;20206;-79
2021/06/12 11:15:35;;;;;;;2.47;1.17;;;;;27.40;101989.00;;;;5101124;28;20258;-79
2021/06/12 11:18:17;;;;;;;2.40;1.08;;;;;27.30;101993.00;;;;5090987;28;20202;-79
2021/06/12 11:20:47;;;;;;;2.17;1.30;;;;;27.40;101997.00;;;;5091290;28;20575;-79
2021/06/12 11:23:20;;;;;;;6.40;1.65;;;;;27.40;102008.00;;;;5103630;28;20586;-78
2021/06/12 11:25:59;;;;;;;2.70;0.90;;;;;27.40;101996.00;;;;5097357;28;20206;-78
2021/06/12 11:28:36;;;;;;;1.98;1.23;;;;;27.40;102005.00;;;;5089193;28;20193;-78
2021/06/12 11:31:23;;;;;;;2.55;1.45;;;;;27.40;101998.00;;;;5090264;28;20686;-79
2021/06/12 11:34:15;;;;;;;2.72;1.30;;;;;27.40;102005.00;;;;5089750;28;20540;-78
2021/06/12 11:36:43;;;;;;;1.67;0.98;;;;;27.60;102013.00;;;;5089752;28;20222;-79
2021/06/12 11:39:11;;;;;;;3.53;1.20;;;;;27.60;102010.00;;;;5095460;28;20202;-80
2021/06/12 11:41:39;;;;;;;4.72;1.40;;;;;27.60;102012.00;;;;5125790;27;20216;-80
2021/06/12 11:44:08;;;;;;;2.83;1.30;;;;;27.60;102017.00;;;;5110437;28;20213;-77
2021/06/12 11:46:37;;;;;;;1.00;0.80;;;;;27.60;102018.00;;;;5109317;28;20209;-79
2021/06/12 11:49:06;;;;;;;3.10;1.35;;;;;27.70;102017.00;;;;5109741;28;20197;-80
2021/06/12 11:51:34;;;;;;;2.33;1.02;;;;;27.70;102027.00;;;;5109915;28;20255;-79
2021/06/12 11:54:10;;;;;;;1.73;1.20;;;;;27.70;102026.00;;;;5110000;28;20214;-79
2021/06/12 11:56:40;;;;;;;4.10;1.38;;;;;27.70;102023.00;;;;5100916;28;21166;-79
2021/06/12 11:59:09;;;;;;;3.08;1.25;;;;;27.70;102026.00;;;;5110237;28;20205;-78
2021/06/12 12:01:41;;;;;;;6.38;1.48;;;;;27.70;102028.00;;;;5111241;28;20214;-78
2021/06/12 12:04:11;;;;;;;3.53;1.45;;;;;27.70;102032.00;;;;5109879;28;20190;-80
2021/06/12 12:06:38;;;;;;;3.40;1.50;;;;;27.70;102022.00;;;;5110905;28;20205;-78
2021/06/12 12:09:06;;;;;;;4.68;1.13;;;;;27.70;102028.00;;;;5110234;28;20197;-78
2021/06/12 12:11:33;;;;;;;4.75;1.40;;;;;27.70;102040.00;;;;5110691;28;20194;-78
2021/06/12 12:14:04;;;;;;;3.03;1.15;;;;;27.60;102037.00;;;;5110014;28;20209;-78
2021/06/12 12:16:31;;;;;;;3.22;1.10;;;;;27.60;102034.00;;;;5097677;28;20225;-79
2021/06/12 12:19:00;;;;;;;6.70;1.90;;;;;27.60;102030.00;;;;5111455;28;20586;-78